^^
Meteo Knjazevac Station Historical Data
Daily Summary for January 18, 2022 Units:  Metric    English   Both
Daily Weekly Monthly Yearly Custom
  High: Low: Average:
Temperature: 4.8 °C -3.1 °C 1.1 °C
Dew Point: 2.6 °C -5.4 °C -2.7 °C
Humidity: 93% 64% 76%
Wind Speed: 19.3km/h 0km/h 7.1km/h
Wind Gust: 33.8km/h - -
Wind- - WSW
Pressure: 1032.7 hPa 1021.9 hPa -
Precipitation: 0.25 mm    
Historical Graphs
 
 
Tabular Data for January 18, 2022
Time Temperature Dew Point Pressure Wind Wind Speed Wind Gust Humidity Rainfall Rate (Hourly) solar Conditions
00:00 3.6 °C 2.6 °C 1021.9 hPa WSW 4.8 km/h 11.3 km/h 93% 0 mm 0 W/m2
00:10 3.6 °C 2.6 °C 1022.2 hPa WSW 4.8 km/h 11.3 km/h 93% 0 mm 0 W/m2
00:20 3.7 °C 2.4 °C 1022.6 hPa WNW 3.2 km/h 11.3 km/h 91% 0 mm 0 W/m2
00:30 3.7 °C 2.4 °C 1022.2 hPa WNW 3.2 km/h 8 km/h 91% 0 mm 0 W/m2
00:40 3.7 °C 2.2 °C 1022.6 hPa West 9.7 km/h 14.5 km/h 90% 0 mm 0 W/m2
00:50 3.6 °C 1.8 °C 1023.6 hPa North 19.3 km/h 29 km/h 88% 0.25 mm 0 W/m2
01:00 3 °C 0.7 °C 1023.9 hPa NNW 8 km/h 32.2 km/h 85% 0 mm 0 W/m2
01:10 2.8 °C -0.5 °C 1024.3 hPa North 9.7 km/h 30.6 km/h 79% 0 mm 0 W/m2
01:20 2.6 °C -1.2 °C 1024.6 hPa NNW 4.8 km/h 24.1 km/h 76% 0 mm 0 W/m2
01:30 2.4 °C -1.6 °C 1024.6 hPa NNW 8 km/h 20.9 km/h 75% 0 mm 0 W/m2
01:40 2.2 °C -1.8 °C 1024.9 hPa NW 4.8 km/h 11.3 km/h 75% 0 mm 0 W/m2
01:50 2.1 °C -2.1 °C 1024.9 hPa NW 8 km/h 17.7 km/h 74% 0 mm 0 W/m2
02:00 1.9 °C -2.2 °C 1024.9 hPa NW 3.2 km/h 17.7 km/h 74% 0 mm 0 W/m2
02:10 1.8 °C -2.3 °C 1025.3 hPa WNW 4.8 km/h 11.3 km/h 74% 0 mm 0 W/m2
02:20 1.7 °C -2.3 °C 1025.3 hPa NW 4.8 km/h 12.9 km/h 75% 0 mm 0 W/m2
02:30 1.6 °C -2.3 °C 1025.6 hPa WNW 8 km/h 12.9 km/h 75% 0 mm 0 W/m2
02:40 1.5 °C -2.6 °C 1025.6 hPa NW 9.7 km/h 19.3 km/h 74% 0 mm 0 W/m2
02:50 1.7 °C -2.6 °C 1025.6 hPa NNW 9.7 km/h 19.3 km/h 73% 0 mm 0 W/m2
03:00 1.6 °C -2.7 °C 1025.6 hPa NNW 8 km/h 14.5 km/h 73% 0 mm 0 W/m2
03:10 1.5 °C -2.8 °C 1025.6 hPa NNW 8 km/h 16.1 km/h 73% 0 mm 0 W/m2
03:20 1.4 °C -3.1 °C 1025.6 hPa NW 8 km/h 14.5 km/h 72% 0 mm 0 W/m2
03:30 1.5 °C -3 °C 1026 hPa NW 4.8 km/h 20.9 km/h 72% 0 mm 0 W/m2
03:40 1.3 °C -2.9 °C 1026 hPa West 1.6 km/h 14.5 km/h 74% 0 mm 0 W/m2
03:50 0.8 °C -2.8 °C 1026.3 hPa WSW 3.2 km/h 4.8 km/h 77% 0 mm 0 W/m2
04:00 0.3 °C -3.1 °C 1026.3 hPa WNW 3.2 km/h 8 km/h 78% 0 mm 0 W/m2
04:10 0.1 °C -3.2 °C 1026.3 hPa West 4.8 km/h 8 km/h 79% 0 mm 0 W/m2
04:20 -0.1 °C -3.3 °C 1026.3 hPa West 3.2 km/h 9.7 km/h 79% 0 mm 0 W/m2
04:30 -0.3 °C -3.2 °C 1026.3 hPa Calm   6.4 km/h 81% 0 mm 0 W/m2
04:40 -0.6 °C -3.4 °C 1026.6 hPa WSW 1.6 km/h 4.8 km/h 81% 0 mm 0 W/m2
04:50 -0.7 °C -3.2 °C 1027 hPa WSW 3.2 km/h 8 km/h 83% 0 mm 0 W/m2
05:00 -0.8 °C -3.3 °C 1027 hPa WNW 3.2 km/h 6.4 km/h 83% 0 mm 0 W/m2
05:10 -0.9 °C -3.4 °C 1027.3 hPa Calm   3.2 km/h 83% 0 mm 0 W/m2
05:20 -1.1 °C -3.4 °C 1027.3 hPa WSW 1.6 km/h 3.2 km/h 84% 0 mm 0 W/m2
05:30 -1.2 °C -3.6 °C 1027.3 hPa South 3.2 km/h 8 km/h 84% 0 mm 0 W/m2
05:40 -1.1 °C -3.3 °C 1027.3 hPa SW 1.6 km/h 9.7 km/h 85% 0 mm 0 W/m2
05:50 -1.1 °C -3.3 °C 1027.3 hPa West 4.8 km/h 8 km/h 85% 0 mm 0 W/m2
06:00 -1 °C -3.2 °C 1027.7 hPa West 3.2 km/h 9.7 km/h 85% 0 mm 0 W/m2
06:10 -0.9 °C -3.1 °C 1027.7 hPa West 1.6 km/h 9.7 km/h 85% 0 mm 0 W/m2
06:20 -0.7 °C -2.9 °C 1028 hPa Calm   6.4 km/h 85% 0 mm 0 W/m2
06:30 -0.8 °C -3 °C 1028 hPa West 8 km/h 9.7 km/h 85% 0 mm 0 W/m2
06:40 -0.9 °C -3.3 °C 1028 hPa WSW 9.7 km/h 14.5 km/h 84% 0 mm 0 W/m2
06:50 -0.8 °C -3.2 °C 1028 hPa WSW 11.3 km/h 16.1 km/h 84% 0 mm 0 W/m2
07:00 -0.7 °C -3.1 °C 1028 hPa WSW 11.3 km/h 19.3 km/h 84% 0 mm 4 W/m2
07:10 -0.5 °C -2.9 °C 1028.3 hPa WSW 11.3 km/h 19.3 km/h 84% 0 mm 9 W/m2
07:20 -0.4 °C -2.8 °C 1028.3 hPa WSW 9.7 km/h 17.7 km/h 84% 0 mm 13 W/m2
07:30 -0.3 °C -2.9 °C 1028.7 hPa WSW 11.3 km/h 16.1 km/h 83% 0 mm 28 W/m2
07:40 -0.3 °C -2.8 °C 1028.7 hPa WSW 8 km/h 12.9 km/h 83% 0 mm 47 W/m2
07:50 -0.2 °C -2.7 °C 1029 hPa WSW 9.7 km/h 16.1 km/h 83% 0 mm 66 W/m2
08:00 0.2 °C -2.3 °C 1029 hPa WSW 8 km/h 14.5 km/h 83% 0 mm 56 W/m2
08:10 0.3 °C -2.6 °C 1029 hPa WSW 11.3 km/h 20.9 km/h 81% 0 mm 52 W/m2
08:20 0.5 °C -2.4 °C 1029 hPa WSW 11.3 km/h 16.1 km/h 81% 0 mm 64 W/m2
08:30 0.8 °C -2.1 °C 1029.3 hPa WSW 8 km/h 17.7 km/h 81% 0 mm 147 W/m2
08:40 1.3 °C -1.8 °C 1029.3 hPa WSW 8 km/h 20.9 km/h 80% 0 mm 167 W/m2
08:50 1.6 °C -1.8 °C 1029.3 hPa WSW 9.7 km/h 20.9 km/h 78% 0 mm 187 W/m2
09:00 1.8 °C -1.6 °C 1029.3 hPa SW 11.3 km/h 20.9 km/h 78% 0 mm 207 W/m2
09:10 2.2 °C -1.6 °C 1029.3 hPa WSW 9.7 km/h 20.9 km/h 76% 0 mm 226 W/m2
09:20 2.5 °C -1.3 °C 1029.7 hPa SW 4.8 km/h 14.5 km/h 76% 0 mm 220 W/m2
09:30 2.8 °C -1.4 °C 1029.3 hPa SW 19.3 km/h 24.1 km/h 74% 0 mm 261 W/m2
09:40 2.7 °C -1.6 °C 1029.7 hPa WSW 11.3 km/h 22.5 km/h 73% 0 mm 277 W/m2
09:50 2.8 °C -1.4 °C 1029.7 hPa SW 4.8 km/h 19.3 km/h 74% 0 mm 293 W/m2
10:00 3 °C -1.4 °C 1030 hPa SW 11.3 km/h 16.1 km/h 73% 0 mm 158 W/m2
10:10 2.7 °C -1.7 °C 1030 hPa WSW 16.1 km/h 29 km/h 73% 0 mm 135 W/m2
10:20 2.5 °C -2.1 °C 1030 hPa WSW 9.7 km/h 27.4 km/h 72% 0 mm 149 W/m2
10:30 2.4 °C -2.1 °C 1030 hPa WSW 16.1 km/h 27.4 km/h 72% 0 mm 127 W/m2
10:40 2.3 °C -2.2 °C 1029.7 hPa WSW 19.3 km/h 29 km/h 72% 0 mm 109 W/m2
10:50 2.2 °C -2.2 °C 1030 hPa WSW 9.7 km/h 25.7 km/h 73% 0 mm 84 W/m2
11:00 2.2 °C -2.2 °C 1030 hPa WSW 9.7 km/h 19.3 km/h 73% 0 mm 103 W/m2
11:10 2.3 °C -2 °C 1030 hPa WSW 14.5 km/h 25.7 km/h 73% 0 mm 369 W/m2
11:20 2.9 °C -1.7 °C 1030 hPa West 14.5 km/h 27.4 km/h 72% 0 mm 210 W/m2
11:30 3.3 °C -1.7 °C 1030 hPa WSW 14.5 km/h 27.4 km/h 70% 0 mm 375 W/m2
11:40 3.6 °C -1.2 °C 1029.7 hPa West 12.9 km/h 25.7 km/h 71% 0 mm 375 W/m2
11:50 3.9 °C -1.5 °C 1029.7 hPa WSW 16.1 km/h 29 km/h 68% 0 mm 374 W/m2
12:00 3.9 °C -1.4 °C 1029.7 hPa WSW 11.3 km/h 22.5 km/h 68% 0 mm 372 W/m2
12:10 4.3 °C -1.1 °C 1029.7 hPa WSW 14.5 km/h 22.5 km/h 68% 0 mm 368 W/m2
12:20 4.5 °C -1.1 °C 1029.7 hPa WSW 11.3 km/h 33.8 km/h 67% 0 mm 362 W/m2
12:30 4.8 °C -1 °C 1029.7 hPa WSW 11.3 km/h 25.7 km/h 66% 0 mm 356 W/m2
12:40 4.8 °C -1.2 °C 1029.7 hPa WSW 9.7 km/h 25.7 km/h 65% 0 mm 157 W/m2
12:50 4.3 °C -1.7 °C 1029.7 hPa WSW 11.3 km/h 22.5 km/h 65% 0 mm 126 W/m2
13:00 3.9 °C -1.7 °C 1029.7 hPa WSW 8 km/h 20.9 km/h 67% 0 mm 146 W/m2
13:10 3.9 °C -1.7 °C 1030 hPa West 12.9 km/h 25.7 km/h 67% 0 mm 103 W/m2
13:20 3.9 °C -1.5 °C 1030 hPa WSW 11.3 km/h 27.4 km/h 68% 0 mm 302 W/m2
13:30 3.9 °C -2.1 °C 1029.7 hPa WSW 11.3 km/h 20.9 km/h 65% 0 mm 150 W/m2
13:40 3.8 °C -2.3 °C 1029.7 hPa WSW 14.5 km/h 25.7 km/h 64% 0 mm 107 W/m2
13:50 3.5 °C -2.4 °C 1029.7 hPa WSW 12.9 km/h 25.7 km/h 65% 0 mm 79 W/m2
14:00 3.3 °C -2.7 °C 1030 hPa WSW 12.9 km/h 27.4 km/h 65% 0 mm 93 W/m2
14:10 3.2 °C -2.8 °C 1030 hPa WSW 12.9 km/h 27.4 km/h 65% 0 mm 89 W/m2
14:20 3.1 °C -2.8 °C 1030 hPa West 9.7 km/h 27.4 km/h 65% 0 mm 96 W/m2
14:30 3 °C -2.7 °C 1030 hPa WSW 14.5 km/h 25.7 km/h 66% 0 mm 91 W/m2
14:40 3.1 °C -2.4 °C 1030 hPa WSW 12.9 km/h 19.3 km/h 67% 0 mm 160 W/m2
14:50 3.2 °C -2.5 °C 1030.4 hPa WSW 14.5 km/h 27.4 km/h 66% 0 mm 140 W/m2
15:00 2.9 °C -2.6 °C 1030.4 hPa WSW 14.5 km/h 27.4 km/h 67% 0 mm 62 W/m2
15:10 2.7 °C -2.6 °C 1030.4 hPa WSW 9.7 km/h 22.5 km/h 68% 0 mm 73 W/m2
15:20 2.7 °C -2.6 °C 1030.4 hPa West 8 km/h 27.4 km/h 68% 0 mm 78 W/m2
15:30 2.5 °C -2.8 °C 1030.7 hPa West 12.9 km/h 29 km/h 68% 0 mm 39 W/m2
15:40 2.3 °C -2.8 °C 1030.7 hPa WNW 8 km/h 22.5 km/h 69% 0 mm 40 W/m2
15:50 2.3 °C -2.8 °C 1030.7 hPa West 9.7 km/h 24.1 km/h 69% 0 mm 23 W/m2
16:00 2.4 °C -2.7 °C 1030.7 hPa WNW 8 km/h 16.1 km/h 69% 0 mm 8 W/m2
16:10 2.2 °C -2.9 °C 1030.7 hPa WNW 12.9 km/h 25.7 km/h 69% 0 mm 13 W/m2
16:20 1.9 °C -2.9 °C 1031 hPa WNW 3.2 km/h 16.1 km/h 70% 0 mm 7 W/m2
16:30 1.7 °C -3.2 °C 1031 hPa WSW 3.2 km/h 12.9 km/h 70% 0 mm 0 W/m2
16:40 1.6 °C -2.9 °C 1031 hPa Calm   8 km/h 72% 0 mm 0 W/m2
16:50 1.4 °C -3.1 °C 1031 hPa West 3.2 km/h 9.7 km/h 72% 0 mm 0 W/m2
17:00 1.3 °C -3.2 °C 1031.4 hPa West 3.2 km/h 11.3 km/h 72% 0 mm 0 W/m2
17:10 1.2 °C -3.3 °C 1031.4 hPa North 1.6 km/h 4.8 km/h 72% 0 mm 0 W/m2
17:20 1 °C -3.3 °C 1031.4 hPa West 3.2 km/h 6.4 km/h 73% 0 mm 0 W/m2
17:30 0.7 °C -3.4 °C 1031.4 hPa West 8 km/h 12.9 km/h 74% 0 mm 0 W/m2
17:40 0.6 °C -3.3 °C 1031.4 hPa South 8 km/h 9.7 km/h 75% 0 mm 0 W/m2
17:50 0.6 °C -3.3 °C 1031.7 hPa ESE 8 km/h 16.1 km/h 75% 0 mm 0 W/m2
18:30 0.4 °C -3.5 °C 1031.7 hPa SW 3.2 km/h 6.4 km/h 75% 0 mm 0 W/m2
18:40 0.3 °C -3.6 °C 1031.7 hPa West 3.2 km/h 14.5 km/h 75% 0 mm 0 W/m2
18:50 0.2 °C -3.3 °C 1031.7 hPa Calm   9.7 km/h 77% 0 mm 0 W/m2
19:00 0.1 °C -3.4 °C 1032.1 hPa NNW 1.6 km/h 8 km/h 77% 0 mm 0 W/m2
19:10 0 °C -3.6 °C 1032.1 hPa West 1.6 km/h 14.5 km/h 77% 0 mm 0 W/m2
19:20 -0.1 °C -3.5 °C 1032.1 hPa WNW 1.6 km/h 4.8 km/h 78% 0 mm 0 W/m2
19:30 -0.3 °C -3.7 °C 1032.1 hPa West 3.2 km/h 8 km/h 78% 0 mm 0 W/m2
19:40 -0.5 °C -3.7 °C 1032.4 hPa West 4.8 km/h 9.7 km/h 79% 0 mm 0 W/m2
19:50 -0.6 °C -3.8 °C 1032.4 hPa West 4.8 km/h 9.7 km/h 79% 0 mm 0 W/m2
20:00 -0.5 °C -3.7 °C 1032.1 hPa West 8 km/h 14.5 km/h 79% 0 mm 0 W/m2
20:10 -0.5 °C -3.7 °C 1032.1 hPa WNW 3.2 km/h 9.7 km/h 79% 0 mm 0 W/m2
20:20 -0.6 °C -3.8 °C 1032.1 hPa NW 1.6 km/h 4.8 km/h 79% 0 mm 0 W/m2
20:30 -0.7 °C -3.9 °C 1032.1 hPa WNW 1.6 km/h 8 km/h 79% 0 mm 0 W/m2
20:40 -0.7 °C -3.9 °C 1032.4 hPa West 1.6 km/h 8 km/h 79% 0 mm 0 W/m2
20:50 -0.7 °C -3.9 °C 1032.4 hPa NNE 1.6 km/h 4.8 km/h 79% 0 mm 0 W/m2
21:00 -0.8 °C -4 °C 1032.7 hPa SE 1.6 km/h 4.8 km/h 79% 0 mm 0 W/m2
21:10 -1.1 °C -4.2 °C 1032.7 hPa West 3.2 km/h 6.4 km/h 79% 0 mm 0 W/m2
21:20 -1.1 °C -4.1 °C 1032.4 hPa WNW 4.8 km/h 9.7 km/h 80% 0 mm 0 W/m2
21:30 -1 °C -4.2 °C 1032.4 hPa NW 1.6 km/h 9.7 km/h 79% 0 mm 0 W/m2
21:40 -1 °C -4.2 °C 1032.4 hPa North 1.6 km/h 9.7 km/h 79% 0 mm 0 W/m2
21:50 -1.3 °C -4.5 °C 1032.7 hPa North 8 km/h 12.9 km/h 79% 0 mm 0 W/m2
22:00 -1.2 °C -4.4 °C 1032.7 hPa NNW 1.6 km/h 11.3 km/h 79% 0 mm 0 W/m2
22:10 -1.5 °C -4.5 °C 1032.7 hPa SSE 1.6 km/h 8 km/h 80% 0 mm 0 W/m2
22:20 -1.7 °C -4.7 °C 1032.7 hPa NNE 1.6 km/h 6.4 km/h 80% 0 mm 0 W/m2
22:30 -1.8 °C -4.8 °C 1032.7 hPa North 1.6 km/h 6.4 km/h 80% 0 mm 0 W/m2
22:40 -1.9 °C -4.9 °C 1032.7 hPa North 1.6 km/h 6.4 km/h 80% 0 mm 0 W/m2
22:50 -2.1 °C -4.9 °C 1032.7 hPa NE 3.2 km/h 8 km/h 81% 0 mm 0 W/m2
23:00 -2.4 °C -5.2 °C 1032.7 hPa North 3.2 km/h 6.4 km/h 81% 0 mm 0 W/m2
23:10 -2.6 °C -5.3 °C 1032.7 hPa NW 3.2 km/h 6.4 km/h 82% 0 mm 0 W/m2
23:20 -2.7 °C -5.2 °C 1032.7 hPa North 3.2 km/h 9.7 km/h 83% 0 mm 0 W/m2
23:30 -2.9 °C -5.2 °C 1032.7 hPa Calm   4.8 km/h 84% 0 mm 0 W/m2
23:40 -2.9 °C -5.3 °C 1032.7 hPa Calm   8 km/h 84% 0 mm 0 W/m2
23:50 -3.1 °C -5.4 °C 1032.4 hPa East 1.6 km/h 3.2 km/h 84% 0 mm 0 W/m2
Knjazevac, Serbia
Compliments of Weather Underground - 2 mb